createdAt,value
2022-08-21T00:04:54.543Z,100.00
2022-08-21T00:09:59.762Z,100.00
2022-08-21T00:15:01.758Z,100.00
2022-08-21T00:20:07.547Z,100.00
2022-08-21T00:25:10.578Z,100.00
2022-08-21T00:30:23.163Z,100.00
2022-08-21T00:35:39.237Z,100.00
2022-08-21T00:40:45.980Z,100.00
2022-08-21T00:45:48.250Z,100.00
2022-08-21T00:50:57.893Z,100.00
2022-08-21T00:56:00.890Z,100.00
2022-08-21T01:01:08.715Z,100.00
2022-08-21T01:06:10.659Z,100.00
2022-08-21T01:11:12.356Z,100.00
2022-08-21T01:16:18.100Z,100.00
2022-08-21T01:21:28.032Z,100.00
2022-08-21T01:26:34.005Z,100.00
2022-08-21T01:31:38.137Z,100.00
2022-08-21T01:36:40.289Z,100.00
2022-08-21T01:41:42.425Z,100.00
2022-08-21T01:46:44.061Z,100.00
2022-08-21T01:51:45.793Z,100.00
2022-08-21T01:56:50.791Z,100.00
2022-08-21T02:01:55.068Z,100.00
2022-08-21T02:06:56.709Z,100.00
2022-08-21T02:11:58.384Z,100.00
2022-08-21T02:17:05.441Z,100.00
2022-08-21T02:22:11.834Z,100.00
2022-08-21T02:27:13.494Z,100.00
2022-08-21T02:32:15.868Z,100.00
2022-08-21T02:37:17.842Z,100.00
2022-08-21T02:42:19.628Z,100.00
2022-08-21T02:47:21.325Z,100.00
2022-08-21T02:52:23.052Z,100.00
2022-08-21T02:57:24.692Z,100.00
2022-08-21T03:02:26.664Z,100.00
2022-08-21T03:07:28.448Z,100.00
2022-08-21T03:12:30.309Z,100.00
2022-08-21T03:17:32.304Z,100.00
2022-08-21T03:22:34.005Z,100.00
2022-08-21T03:27:36.190Z,100.00
2022-08-21T03:32:42.132Z,100.00
2022-08-21T03:37:44.413Z,100.00
2022-08-21T03:42:48.073Z,100.00
2022-08-21T03:47:59.390Z,100.00
2022-08-21T03:53:01.149Z,100.00
2022-08-21T03:58:16.832Z,100.00
2022-08-21T04:03:20.916Z,100.00
2022-08-21T04:08:22.803Z,100.00
2022-08-21T04:13:25.225Z,100.00
2022-08-21T04:18:27.010Z,100.00
2022-08-21T04:23:28.912Z,100.00
2022-08-21T04:28:31.239Z,100.00
2022-08-21T04:33:33.020Z,100.00
2022-08-21T04:38:37.516Z,100.00
2022-08-21T04:43:40.472Z,100.00
2022-08-21T04:48:42.181Z,100.00
2022-08-21T04:53:53.153Z,100.00
2022-08-21T04:58:58.431Z,100.00
2022-08-21T05:04:02.033Z,100.00
2022-08-21T05:09:04.438Z,100.00
2022-08-21T05:14:06.088Z,100.00
2022-08-21T05:19:08.843Z,100.00
2022-08-21T05:24:11.420Z,100.00
2022-08-21T05:29:14.224Z,100.00
2022-08-21T05:34:21.737Z,100.00
2022-08-21T05:39:23.404Z,100.00
2022-08-21T05:44:25.064Z,100.00
2022-08-21T05:49:28.558Z,100.00
2022-08-21T05:54:30.694Z,100.00
2022-08-21T05:59:32.402Z,100.00
2022-08-21T06:04:37.172Z,100.00
2022-08-21T06:09:39.139Z,100.00
2022-08-21T06:14:42.173Z,100.00
2022-08-21T06:19:43.820Z,100.00
2022-08-21T06:24:47.938Z,100.00
2022-08-21T06:29:49.608Z,100.00
2022-08-21T06:34:51.321Z,100.00
2022-08-21T06:39:53.240Z,100.00
2022-08-21T06:44:55.519Z,100.00
2022-08-21T06:49:57.925Z,100.00
2022-08-21T06:54:59.574Z,100.00
2022-08-21T07:00:01.248Z,100.00
2022-08-21T07:05:07.890Z,100.00
2022-08-21T07:10:22.440Z,100.00
2022-08-21T07:15:24.550Z,100.00
2022-08-21T07:20:30.670Z,100.00
2022-08-21T07:25:32.719Z,100.00
2022-08-21T07:30:34.490Z,100.00
2022-08-21T07:35:37.188Z,100.00
2022-08-21T07:40:39.875Z,100.00
2022-08-21T07:45:41.578Z,100.00
2022-08-21T07:50:44.045Z,100.00
2022-08-21T07:55:45.675Z,100.00
2022-08-21T08:00:47.321Z,100.00
2022-08-21T08:05:49.037Z,100.00
2022-08-21T08:10:50.893Z,100.00
2022-08-21T08:15:52.717Z,100.00
2022-08-21T08:20:54.392Z,100.00
2022-08-21T08:25:56.047Z,99.87
2022-08-21T08:30:57.695Z,98.84
2022-08-21T08:36:01.353Z,95.08
2022-08-21T08:41:19.869Z,94.31
2022-08-21T08:46:40.467Z,94.84
2022-08-21T08:51:53.130Z,94.90
2022-08-21T08:56:56.803Z,95.56
2022-08-21T09:01:58.837Z,91.56
2022-08-21T09:07:33.874Z,90.94
2022-08-21T09:13:02.805Z,86.65
2022-08-21T09:18:31.999Z,85.87
2022-08-21T09:24:03.386Z,84.91
2022-08-21T09:29:07.954Z,81.97
2022-08-21T09:34:13.095Z,76.17
2022-08-21T09:39:32.871Z,71.91
2022-08-21T09:44:44.911Z,67.47
2022-08-21T09:49:46.570Z,68.68
2022-08-21T09:54:53.573Z,69.97
2022-08-21T09:59:56.243Z,71.49
2022-08-21T10:05:01.206Z,69.87
2022-08-21T10:10:16.555Z,68.23
2022-08-21T10:15:48.327Z,69.91
2022-08-21T10:21:03.588Z,66.62
2022-08-21T10:26:39.969Z,67.29
2022-08-21T10:37:10.530Z,66.94
2022-08-21T10:42:15.401Z,68.78
2022-08-21T10:47:28.839Z,67.77
2022-08-21T10:52:36.284Z,65.68
2022-08-21T10:57:57.484Z,65.29
2022-08-21T11:03:29.897Z,65.80
2022-08-21T11:08:38.933Z,64.76
2022-08-21T11:13:52.933Z,64.88
2022-08-21T11:18:57.510Z,63.91
2022-08-21T11:24:05.711Z,62.39
2022-08-21T11:29:30.701Z,59.24
2022-08-21T11:34:48.394Z,62.43
2022-08-21T11:40:10.367Z,57.98
2022-08-21T11:45:42.698Z,57.35
2022-08-21T11:50:46.742Z,57.11
2022-08-21T11:56:06.797Z,53.41
2022-08-21T12:01:22.790Z,53.19
2022-08-21T12:06:36.767Z,49.61
2022-08-21T12:12:00.601Z,52.02
2022-08-21T12:17:08.857Z,49.54
2022-08-21T12:22:15.764Z,48.34
2022-08-21T12:27:41.752Z,52.11
2022-08-21T12:32:43.806Z,52.47
2022-08-21T12:37:50.974Z,54.42
2022-08-21T12:42:58.811Z,56.56
2022-08-21T12:48:38.441Z,59.32
2022-08-21T12:53:45.736Z,61.64
2022-08-21T12:58:57.874Z,61.70
2022-08-21T13:04:05.279Z,59.85
2022-08-21T13:09:12.119Z,61.80
2022-08-21T13:14:38.341Z,59.98
2022-08-21T13:19:58.914Z,58.58
2022-08-21T13:25:00.700Z,55.05
2022-08-21T13:30:18.429Z,53.80
2022-08-21T13:35:23.906Z,54.54
2022-08-21T13:40:30.637Z,48.99
2022-08-21T13:45:33.797Z,51.39
2022-08-21T13:50:38.740Z,56.81
2022-08-21T13:55:44.853Z,57.69
2022-08-21T14:00:53.718Z,57.25
2022-08-21T14:05:55.500Z,57.82
2022-08-21T14:10:58.109Z,58.00
2022-08-21T14:16:03.442Z,57.82
2022-08-21T14:21:07.476Z,58.08
2022-08-21T14:26:10.122Z,58.02
2022-08-21T14:31:23.020Z,56.60
2022-08-21T14:36:25.372Z,56.98
2022-08-21T14:41:30.233Z,57.36
2022-08-21T14:46:33.150Z,57.43
2022-08-21T14:51:34.831Z,56.13
2022-08-21T14:56:37.011Z,57.42
2022-08-21T15:01:40.488Z,56.06
2022-08-21T15:06:42.245Z,56.78
2022-08-21T15:11:44.303Z,56.55
2022-08-21T15:16:46.621Z,56.18
2022-08-21T15:21:48.516Z,57.18
2022-08-21T15:26:50.494Z,56.30
2022-08-21T15:31:58.091Z,58.79
2022-08-21T15:36:59.801Z,58.14
2022-08-21T15:42:10.671Z,58.10
2022-08-21T15:47:16.541Z,58.78
2022-08-21T15:52:21.605Z,60.92
2022-08-21T15:57:25.699Z,60.49
2022-08-21T16:02:31.284Z,63.72
2022-08-21T16:07:32.960Z,63.17
2022-08-21T16:12:42.614Z,60.77
2022-08-21T16:17:48.813Z,63.40
2022-08-21T16:22:50.885Z,63.12
2022-08-21T16:27:59.583Z,67.35
2022-08-21T16:33:03.747Z,62.47
2022-08-21T16:38:05.447Z,60.25
2022-08-21T16:43:07.267Z,63.77
2022-08-21T16:48:09.849Z,62.33
2022-08-21T16:53:11.506Z,64.57
2022-08-21T16:58:34.959Z,63.88
2022-08-21T17:03:40.424Z,61.81
2022-08-21T17:08:42.470Z,63.62
2022-08-21T17:13:44.118Z,65.30
2022-08-21T17:18:47.772Z,62.75
2022-08-21T17:23:53.688Z,66.60
2022-08-21T17:28:55.465Z,67.14
2022-08-21T17:33:57.375Z,70.61
2022-08-21T17:38:59.808Z,72.49
2022-08-21T17:44:07.346Z,74.94
2022-08-21T17:49:09.189Z,76.49
2022-08-21T17:54:11.172Z,77.56
2022-08-21T17:59:13.059Z,78.53
2022-08-21T18:04:15.958Z,78.12
2022-08-21T18:09:18.468Z,80.64
2022-08-21T18:14:25.254Z,81.84
2022-08-21T18:19:27.170Z,84.11
2022-08-21T18:24:28.864Z,85.65
2022-08-21T18:29:30.618Z,87.36
2022-08-21T18:34:37.581Z,88.12
2022-08-21T18:39:39.250Z,90.36
2022-08-21T18:44:45.257Z,92.54
2022-08-21T18:49:46.934Z,95.24
2022-08-21T18:54:49.565Z,95.50
2022-08-21T18:59:51.808Z,97.23
2022-08-21T19:04:53.682Z,98.15
2022-08-21T19:10:24.094Z,98.29
2022-08-21T19:15:20.101Z,99.44
2022-08-21T19:20:30.085Z,100.00
2022-08-21T19:31:00.653Z,100.00
2022-08-21T19:36:05.504Z,100.00
2022-08-21T19:41:10.346Z,100.00
2022-08-21T19:46:15.822Z,100.00
2022-08-21T19:51:18.801Z,100.00
2022-08-21T19:56:24.657Z,100.00
2022-08-21T20:01:27.580Z,100.00
2022-08-21T20:06:29.373Z,100.00
2022-08-21T20:11:38.016Z,100.00
2022-08-21T20:16:41.433Z,100.00
2022-08-21T20:21:44.570Z,100.00
2022-08-21T20:26:49.260Z,100.00
2022-08-21T20:31:52.006Z,100.00
2022-08-21T20:36:53.873Z,100.00
2022-08-21T20:41:56.742Z,100.00
2022-08-21T20:46:59.857Z,100.00
2022-08-21T20:52:09.115Z,100.00
2022-08-21T20:57:18.259Z,100.00
2022-08-21T21:02:42.866Z,100.00
2022-08-21T21:08:00.756Z,100.00
2022-08-21T21:13:26.237Z,100.00
2022-08-21T21:18:37.237Z,100.00
2022-08-21T21:24:14.876Z,100.00
2022-08-21T21:29:25.556Z,100.00
2022-08-21T21:34:31.917Z,100.00
2022-08-21T21:40:08.806Z,100.00
2022-08-21T21:45:10.408Z,100.00
2022-08-21T21:50:21.178Z,100.00
2022-08-21T21:55:50.764Z,100.00
2022-08-21T22:01:07.256Z,100.00
2022-08-21T22:06:27.255Z,100.00
2022-08-21T22:11:58.355Z,100.00
2022-08-21T22:17:08.330Z,100.00
2022-08-21T22:22:23.151Z,100.00
2022-08-21T22:27:34.127Z,100.00
2022-08-21T22:32:45.779Z,100.00
2022-08-21T22:37:55.136Z,100.00
2022-08-21T22:43:02.628Z,100.00
2022-08-21T22:48:11.091Z,100.00
2022-08-21T22:53:23.978Z,100.00
2022-08-21T22:58:30.607Z,100.00
2022-08-21T23:03:52.966Z,100.00
2022-08-21T23:08:55.460Z,100.00
2022-08-21T23:13:57.125Z,100.00
2022-08-21T23:19:17.661Z,100.00
2022-08-21T23:24:46.629Z,100.00
2022-08-21T23:30:18.528Z,100.00
2022-08-21T23:35:48.237Z,100.00
2022-08-21T23:41:18.863Z,100.00
2022-08-21T23:46:56.954Z,100.00
2022-08-21T23:52:19.931Z,100.00
2022-08-21T23:57:31.243Z,100.00
